sensor_id;sensor_type;location;lat;lon;timestamp;P1;durP1;ratioP1;P2;durP2;ratioP2
3343;SDS011;1685;53.104;8.228;2023-04-24T00:01:15;8.03;;;6.93;;
3343;SDS011;1685;53.104;8.228;2023-04-24T00:03:42;7.30;;;6.60;;
3343;SDS011;1685;53.104;8.228;2023-04-24T00:06:09;6.47;;;5.97;;
3343;SDS011;1685;53.104;8.228;2023-04-24T00:08:37;8.30;;;6.97;;
3343;SDS011;1685;53.104;8.228;2023-04-24T00:11:04;6.40;;;5.73;;
3343;SDS011;1685;53.104;8.228;2023-04-24T00:13:31;6.20;;;5.70;;
3343;SDS011;1685;53.104;8.228;2023-04-24T00:15:58;6.67;;;5.43;;
3343;SDS011;1685;53.104;8.228;2023-04-24T00:18:25;17.80;;;6.47;;
3343;SDS011;1685;53.104;8.228;2023-04-24T00:20:52;5.63;;;5.13;;
3343;SDS011;1685;53.104;8.228;2023-04-24T00:23:19;6.10;;;5.50;;
3343;SDS011;1685;53.104;8.228;2023-04-24T00:25:48;5.47;;;5.00;;
3343;SDS011;1685;53.104;8.228;2023-04-24T00:28:15;5.00;;;4.60;;
3343;SDS011;1685;53.104;8.228;2023-04-24T00:30:42;5.43;;;4.80;;
3343;SDS011;1685;53.104;8.228;2023-04-24T00:33:09;5.80;;;4.60;;
3343;SDS011;1685;53.104;8.228;2023-04-24T00:35:36;3.93;;;3.63;;
3343;SDS011;1685;53.104;8.228;2023-04-24T00:38:03;4.50;;;3.63;;
3343;SDS011;1685;53.104;8.228;2023-04-24T00:40:30;4.57;;;3.97;;
3343;SDS011;1685;53.104;8.228;2023-04-24T00:42:59;3.13;;;3.03;;
3343;SDS011;1685;53.104;8.228;2023-04-24T00:45:25;2.73;;;2.63;;
3343;SDS011;1685;53.104;8.228;2023-04-24T00:47:53;2.97;;;2.67;;
3343;SDS011;1685;53.104;8.228;2023-04-24T00:50:20;3.10;;;3.00;;
3343;SDS011;1685;53.104;8.228;2023-04-24T00:52:47;2.97;;;2.67;;
3343;SDS011;1685;53.104;8.228;2023-04-24T00:55:14;2.60;;;2.40;;
3343;SDS011;1685;53.104;8.228;2023-04-24T00:57:41;2.90;;;2.80;;
3343;SDS011;1685;53.104;8.228;2023-04-24T01:00:11;3.73;;;2.80;;
3343;SDS011;1685;53.104;8.228;2023-04-24T01:02:39;3.73;;;3.53;;
3343;SDS011;1685;53.104;8.228;2023-04-24T01:05:09;5.20;;;3.03;;
3343;SDS011;1685;53.104;8.228;2023-04-24T01:07:36;3.40;;;3.17;;
3343;SDS011;1685;53.104;8.228;2023-04-24T01:10:04;3.50;;;3.33;;
3343;SDS011;1685;53.104;8.228;2023-04-24T01:12:31;3.20;;;3.10;;
3343;SDS011;1685;53.104;8.228;2023-04-24T01:14:58;3.47;;;3.27;;
3343;SDS011;1685;53.104;8.228;2023-04-24T01:17:27;3.20;;;3.00;;
3343;SDS011;1685;53.104;8.228;2023-04-24T01:19:54;4.27;;;3.97;;
3343;SDS011;1685;53.104;8.228;2023-04-24T01:22:23;3.50;;;3.30;;
3343;SDS011;1685;53.104;8.228;2023-04-24T01:24:49;2.90;;;2.80;;
3343;SDS011;1685;53.104;8.228;2023-04-24T01:27:16;3.03;;;2.93;;
3343;SDS011;1685;53.104;8.228;2023-04-24T01:29:44;3.63;;;3.33;;
3343;SDS011;1685;53.104;8.228;2023-04-24T01:32:12;4.77;;;3.70;;
3343;SDS011;1685;53.104;8.228;2023-04-24T01:34:39;3.60;;;3.40;;
3343;SDS011;1685;53.104;8.228;2023-04-24T01:37:07;4.87;;;3.83;;
3343;SDS011;1685;53.104;8.228;2023-04-24T01:39:35;4.27;;;4.07;;
3343;SDS011;1685;53.104;8.228;2023-04-24T01:42:02;5.00;;;4.70;;
3343;SDS011;1685;53.104;8.228;2023-04-24T01:44:29;5.43;;;5.03;;
3343;SDS011;1685;53.104;8.228;2023-04-24T01:46:57;5.60;;;5.10;;
3343;SDS011;1685;53.104;8.228;2023-04-24T01:49:24;5.60;;;5.20;;
3343;SDS011;1685;53.104;8.228;2023-04-24T01:51:51;6.00;;;5.50;;
3343;SDS011;1685;53.104;8.228;2023-04-24T01:54:18;8.53;;;6.10;;
3343;SDS011;1685;53.104;8.228;2023-04-24T01:56:48;5.67;;;5.27;;
3343;SDS011;1685;53.104;8.228;2023-04-24T01:59:15;7.40;;;6.70;;
3343;SDS011;1685;53.104;8.228;2023-04-24T02:01:42;6.50;;;6.00;;
3343;SDS011;1685;53.104;8.228;2023-04-24T02:04:09;6.03;;;5.53;;
3343;SDS011;1685;53.104;8.228;2023-04-24T02:06:36;5.83;;;5.43;;
3343;SDS011;1685;53.104;8.228;2023-04-24T02:09:03;6.10;;;5.60;;
3343;SDS011;1685;53.104;8.228;2023-04-24T02:11:30;5.97;;;5.50;;
3343;SDS011;1685;53.104;8.228;2023-04-24T02:13:59;6.17;;;5.70;;
3343;SDS011;1685;53.104;8.228;2023-04-24T02:16:25;6.87;;;6.20;;
3343;SDS011;1685;53.104;8.228;2023-04-24T02:18:55;6.63;;;5.20;;
3343;SDS011;1685;53.104;8.228;2023-04-24T02:21:22;5.87;;;5.37;;
3343;SDS011;1685;53.104;8.228;2023-04-24T02:23:49;5.73;;;5.30;;
3343;SDS011;1685;53.104;8.228;2023-04-24T02:26:16;5.97;;;5.30;;
3343;SDS011;1685;53.104;8.228;2023-04-24T02:28:43;6.27;;;5.67;;
3343;SDS011;1685;53.104;8.228;2023-04-24T02:31:12;6.50;;;5.90;;
3343;SDS011;1685;53.104;8.228;2023-04-24T02:33:38;5.70;;;5.20;;
3343;SDS011;1685;53.104;8.228;2023-04-24T02:36:05;5.93;;;5.47;;
3343;SDS011;1685;53.104;8.228;2023-04-24T02:38:33;5.70;;;5.27;;
3343;SDS011;1685;53.104;8.228;2023-04-24T02:41:00;6.23;;;5.73;;
3343;SDS011;1685;53.104;8.228;2023-04-24T02:43:31;6.27;;;5.77;;
3343;SDS011;1685;53.104;8.228;2023-04-24T02:45:58;5.50;;;4.90;;
3343;SDS011;1685;53.104;8.228;2023-04-24T02:48:26;5.67;;;5.23;;
3343;SDS011;1685;53.104;8.228;2023-04-24T02:50:53;5.80;;;5.17;;
3343;SDS011;1685;53.104;8.228;2023-04-24T02:53:20;6.53;;;5.93;;
3343;SDS011;1685;53.104;8.228;2023-04-24T02:55:48;5.97;;;5.43;;
3343;SDS011;1685;53.104;8.228;2023-04-24T02:58:15;6.07;;;5.43;;
3343;SDS011;1685;53.104;8.228;2023-04-24T03:00:44;6.53;;;5.93;;
3343;SDS011;1685;53.104;8.228;2023-04-24T03:03:12;6.57;;;5.97;;
3343;SDS011;1685;53.104;8.228;2023-04-24T03:05:41;6.43;;;5.80;;
3343;SDS011;1685;53.104;8.228;2023-04-24T03:08:08;7.13;;;5.70;;
3343;SDS011;1685;53.104;8.228;2023-04-24T03:10:35;6.60;;;6.00;;
3343;SDS011;1685;53.104;8.228;2023-04-24T03:13:02;6.30;;;5.53;;
3343;SDS011;1685;53.104;8.228;2023-04-24T03:15:29;6.00;;;5.40;;
3343;SDS011;1685;53.104;8.228;2023-04-24T03:17:56;6.10;;;5.60;;
3343;SDS011;1685;53.104;8.228;2023-04-24T03:20:23;6.40;;;5.80;;
3343;SDS011;1685;53.104;8.228;2023-04-24T03:22:52;7.60;;;5.80;;
3343;SDS011;1685;53.104;8.228;2023-04-24T03:25:18;6.43;;;5.77;;
3343;SDS011;1685;53.104;8.228;2023-04-24T03:27:46;7.17;;;6.47;;
3343;SDS011;1685;53.104;8.228;2023-04-24T03:30:13;6.80;;;6.10;;
3343;SDS011;1685;53.104;8.228;2023-04-24T03:32:40;7.10;;;6.47;;
3343;SDS011;1685;53.104;8.228;2023-04-24T03:35:07;7.20;;;6.50;;
3343;SDS011;1685;53.104;8.228;2023-04-24T03:37:34;6.30;;;5.70;;
3343;SDS011;1685;53.104;8.228;2023-04-24T03:40:03;6.20;;;5.60;;
3343;SDS011;1685;53.104;8.228;2023-04-24T03:42:32;7.37;;;6.67;;
3343;SDS011;1685;53.104;8.228;2023-04-24T03:44:59;8.90;;;6.07;;
3343;SDS011;1685;53.104;8.228;2023-04-24T03:47:26;7.40;;;6.70;;
3343;SDS011;1685;53.104;8.228;2023-04-24T03:49:53;6.57;;;5.97;;
3343;SDS011;1685;53.104;8.228;2023-04-24T03:52:20;6.37;;;5.77;;
3343;SDS011;1685;53.104;8.228;2023-04-24T03:54:47;6.47;;;5.90;;
3343;SDS011;1685;53.104;8.228;2023-04-24T03:57:16;6.20;;;5.70;;
3343;SDS011;1685;53.104;8.228;2023-04-24T03:59:43;5.63;;;5.10;;
3343;SDS011;1685;53.104;8.228;2023-04-24T04:02:10;6.57;;;5.87;;
3343;SDS011;1685;53.104;8.228;2023-04-24T04:04:37;6.10;;;5.60;;
3343;SDS011;1685;53.104;8.228;2023-04-24T04:07:04;6.97;;;6.30;;
3343;SDS011;1685;53.104;8.228;2023-04-24T04:09:31;8.63;;;5.73;;
3343;SDS011;1685;53.104;8.228;2023-04-24T04:11:59;7.10;;;6.40;;
3343;SDS011;1685;53.104;8.228;2023-04-24T04:14:27;6.53;;;5.93;;
3343;SDS011;1685;53.104;8.228;2023-04-24T04:16:54;8.00;;;7.20;;
3343;SDS011;1685;53.104;8.228;2023-04-24T04:19:21;7.93;;;7.03;;
3343;SDS011;1685;53.104;8.228;2023-04-24T04:21:48;10.73;;;7.57;;
3343;SDS011;1685;53.104;8.228;2023-04-24T04:24:18;8.40;;;7.60;;
3343;SDS011;1685;53.104;8.228;2023-04-24T04:26:45;7.40;;;6.70;;
3343;SDS011;1685;53.104;8.228;2023-04-24T04:29:13;8.70;;;7.90;;
3343;SDS011;1685;53.104;8.228;2023-04-24T04:31:41;8.20;;;7.20;;
3343;SDS011;1685;53.104;8.228;2023-04-24T04:34:08;9.63;;;7.97;;
3343;SDS011;1685;53.104;8.228;2023-04-24T04:36:36;9.23;;;8.00;;
3343;SDS011;1685;53.104;8.228;2023-04-24T04:39:05;9.43;;;7.50;;
3343;SDS011;1685;53.104;8.228;2023-04-24T04:41:32;9.67;;;8.47;;
3343;SDS011;1685;53.104;8.228;2023-04-24T04:44:00;9.13;;;8.20;;
3343;SDS011;1685;53.104;8.228;2023-04-24T04:46:29;10.60;;;9.33;;
3343;SDS011;1685;53.104;8.228;2023-04-24T04:48:58;10.73;;;9.63;;
3343;SDS011;1685;53.104;8.228;2023-04-24T04:51:26;10.63;;;9.53;;
3343;SDS011;1685;53.104;8.228;2023-04-24T04:53:53;10.10;;;9.03;;
3343;SDS011;1685;53.104;8.228;2023-04-24T04:56:20;11.13;;;9.23;;
3343;SDS011;1685;53.104;8.228;2023-04-24T04:58:47;12.53;;;9.50;;
3343;SDS011;1685;53.104;8.228;2023-04-24T05:01:14;10.37;;;9.30;;
3343;SDS011;1685;53.104;8.228;2023-04-24T05:03:42;10.90;;;9.33;;
3343;SDS011;1685;53.104;8.228;2023-04-24T05:06:10;12.43;;;9.53;;
3343;SDS011;1685;53.104;8.228;2023-04-24T05:08:37;11.70;;;9.63;;
3343;SDS011;1685;53.104;8.228;2023-04-24T05:11:04;12.47;;;10.37;;
3343;SDS011;1685;53.104;8.228;2023-04-24T05:13:32;12.07;;;10.60;;
3343;SDS011;1685;53.104;8.228;2023-04-24T05:15:59;10.70;;;9.30;;
3343;SDS011;1685;53.104;8.228;2023-04-24T05:18:26;10.57;;;9.47;;
3343;SDS011;1685;53.104;8.228;2023-04-24T05:20:53;13.23;;;10.90;;
3343;SDS011;1685;53.104;8.228;2023-04-24T05:23:22;13.80;;;9.63;;
3343;SDS011;1685;53.104;8.228;2023-04-24T05:25:48;12.20;;;10.40;;
3343;SDS011;1685;53.104;8.228;2023-04-24T05:28:15;13.90;;;11.37;;
3343;SDS011;1685;53.104;8.228;2023-04-24T05:30:43;13.10;;;10.63;;
3343;SDS011;1685;53.104;8.228;2023-04-24T05:33:10;12.80;;;10.20;;
3343;SDS011;1685;53.104;8.228;2023-04-24T05:35:37;15.37;;;9.97;;
3343;SDS011;1685;53.104;8.228;2023-04-24T05:38:04;15.23;;;10.40;;
3343;SDS011;1685;53.104;8.228;2023-04-24T05:40:32;13.90;;;10.63;;
3343;SDS011;1685;53.104;8.228;2023-04-24T05:42:59;13.40;;;10.27;;
3343;SDS011;1685;53.104;8.228;2023-04-24T05:45:26;14.57;;;10.40;;
3343;SDS011;1685;53.104;8.228;2023-04-24T05:47:53;14.33;;;10.47;;
3343;SDS011;1685;53.104;8.228;2023-04-24T05:50:20;12.50;;;10.00;;
3343;SDS011;1685;53.104;8.228;2023-04-24T05:52:48;15.73;;;10.70;;
3343;SDS011;1685;53.104;8.228;2023-04-24T05:55:15;12.63;;;9.80;;
3343;SDS011;1685;53.104;8.228;2023-04-24T05:57:44;14.57;;;9.63;;
3343;SDS011;1685;53.104;8.228;2023-04-24T06:00:12;14.33;;;9.77;;
3343;SDS011;1685;53.104;8.228;2023-04-24T06:02:39;13.03;;;10.30;;
3343;SDS011;1685;53.104;8.228;2023-04-24T06:05:07;10.30;;;9.30;;
3343;SDS011;1685;53.104;8.228;2023-04-24T06:07:34;14.60;;;10.90;;
3343;SDS011;1685;53.104;8.228;2023-04-24T06:10:01;19.17;;;9.33;;
3343;SDS011;1685;53.104;8.228;2023-04-24T06:12:28;15.53;;;11.10;;
3343;SDS011;1685;53.104;8.228;2023-04-24T06:14:57;9.90;;;8.90;;
3343;SDS011;1685;53.104;8.228;2023-04-24T06:17:25;12.10;;;9.60;;
3343;SDS011;1685;53.104;8.228;2023-04-24T06:19:52;14.27;;;10.13;;
3343;SDS011;1685;53.104;8.228;2023-04-24T06:22:19;12.53;;;8.53;;
3343;SDS011;1685;53.104;8.228;2023-04-24T06:24:46;14.53;;;9.47;;
3343;SDS011;1685;53.104;8.228;2023-04-24T06:27:14;12.70;;;9.10;;
3343;SDS011;1685;53.104;8.228;2023-04-24T06:29:41;14.33;;;9.53;;
3343;SDS011;1685;53.104;8.228;2023-04-24T06:32:09;13.23;;;10.23;;
3343;SDS011;1685;53.104;8.228;2023-04-24T06:34:36;12.40;;;9.53;;
3343;SDS011;1685;53.104;8.228;2023-04-24T06:37:03;13.37;;;10.30;;
3343;SDS011;1685;53.104;8.228;2023-04-24T06:39:30;14.33;;;10.93;;
3343;SDS011;1685;53.104;8.228;2023-04-24T06:41:58;12.53;;;10.70;;
3343;SDS011;1685;53.104;8.228;2023-04-24T06:44:25;13.17;;;9.50;;
3343;SDS011;1685;53.104;8.228;2023-04-24T06:46:52;16.97;;;9.90;;
3343;SDS011;1685;53.104;8.228;2023-04-24T06:49:20;11.30;;;10.13;;
3343;SDS011;1685;53.104;8.228;2023-04-24T06:51:47;12.60;;;10.17;;
3343;SDS011;1685;53.104;8.228;2023-04-24T06:54:14;13.20;;;10.53;;
3343;SDS011;1685;53.104;8.228;2023-04-24T06:56:41;12.10;;;10.33;;
3343;SDS011;1685;53.104;8.228;2023-04-24T06:59:10;13.97;;;11.00;;
3343;SDS011;1685;53.104;8.228;2023-04-24T07:01:37;15.40;;;9.77;;
3343;SDS011;1685;53.104;8.228;2023-04-24T07:04:04;14.40;;;9.50;;
3343;SDS011;1685;53.104;8.228;2023-04-24T07:06:33;18.60;;;12.20;;
3343;SDS011;1685;53.104;8.228;2023-04-24T07:09:00;14.00;;;10.77;;
3343;SDS011;1685;53.104;8.228;2023-04-24T07:11:28;14.30;;;10.97;;
3343;SDS011;1685;53.104;8.228;2023-04-24T07:13:55;16.63;;;10.60;;
3343;SDS011;1685;53.104;8.228;2023-04-24T07:16:22;12.80;;;10.00;;
3343;SDS011;1685;53.104;8.228;2023-04-24T07:18:50;11.63;;;9.77;;
3343;SDS011;1685;53.104;8.228;2023-04-24T07:21:17;13.83;;;11.67;;
3343;SDS011;1685;53.104;8.228;2023-04-24T07:23:46;14.53;;;11.80;;
3343;SDS011;1685;53.104;8.228;2023-04-24T07:26:13;13.67;;;11.50;;
3343;SDS011;1685;53.104;8.228;2023-04-24T07:28:40;12.50;;;10.57;;
3343;SDS011;1685;53.104;8.228;2023-04-24T07:31:07;17.03;;;12.10;;
3343;SDS011;1685;53.104;8.228;2023-04-24T07:33:34;14.30;;;11.77;;
3343;SDS011;1685;53.104;8.228;2023-04-24T07:36:02;14.33;;;10.70;;
3343;SDS011;1685;53.104;8.228;2023-04-24T07:38:29;13.77;;;10.40;;
3343;SDS011;1685;53.104;8.228;2023-04-24T07:40:57;11.80;;;10.50;;
3343;SDS011;1685;53.104;8.228;2023-04-24T07:43:24;13.63;;;10.40;;
3343;SDS011;1685;53.104;8.228;2023-04-24T07:45:51;13.80;;;9.60;;
3343;SDS011;1685;53.104;8.228;2023-04-24T07:48:18;12.57;;;11.23;;
3343;SDS011;1685;53.104;8.228;2023-04-24T07:50:47;13.43;;;10.80;;
3343;SDS011;1685;53.104;8.228;2023-04-24T07:53:14;11.60;;;10.03;;
3343;SDS011;1685;53.104;8.228;2023-04-24T07:55:41;12.60;;;9.80;;
3343;SDS011;1685;53.104;8.228;2023-04-24T07:58:09;15.57;;;10.30;;
3343;SDS011;1685;53.104;8.228;2023-04-24T08:00:36;12.17;;;10.40;;
3343;SDS011;1685;53.104;8.228;2023-04-24T08:03:03;10.63;;;8.73;;
3343;SDS011;1685;53.104;8.228;2023-04-24T08:05:30;11.40;;;9.40;;
3343;SDS011;1685;53.104;8.228;2023-04-24T08:07:58;13.53;;;8.77;;
3343;SDS011;1685;53.104;8.228;2023-04-24T08:10:25;9.80;;;8.80;;
3343;SDS011;1685;53.104;8.228;2023-04-24T08:12:52;12.80;;;9.97;;
3343;SDS011;1685;53.104;8.228;2023-04-24T08:15:21;9.50;;;8.60;;
3343;SDS011;1685;53.104;8.228;2023-04-24T08:17:48;14.93;;;9.20;;
3343;SDS011;1685;53.104;8.228;2023-04-24T08:20:15;11.53;;;9.00;;
3343;SDS011;1685;53.104;8.228;2023-04-24T08:22:43;12.57;;;9.20;;
3343;SDS011;1685;53.104;8.228;2023-04-24T08:25:12;9.67;;;8.67;;
3343;SDS011;1685;53.104;8.228;2023-04-24T08:27:39;11.23;;;8.23;;
3343;SDS011;1685;53.104;8.228;2023-04-24T08:30:06;11.57;;;9.10;;
3343;SDS011;1685;53.104;8.228;2023-04-24T08:32:35;9.50;;;8.30;;
3343;SDS011;1685;53.104;8.228;2023-04-24T08:35:02;10.87;;;8.23;;
3343;SDS011;1685;53.104;8.228;2023-04-24T08:37:29;9.17;;;7.63;;
3343;SDS011;1685;53.104;8.228;2023-04-24T08:39:56;8.50;;;7.70;;
3343;SDS011;1685;53.104;8.228;2023-04-24T08:42:23;10.57;;;8.90;;
3343;SDS011;1685;53.104;8.228;2023-04-24T08:44:51;9.70;;;8.10;;
3343;SDS011;1685;53.104;8.228;2023-04-24T08:47:18;9.23;;;8.30;;
3343;SDS011;1685;53.104;8.228;2023-04-24T08:49:48;9.30;;;7.80;;
3343;SDS011;1685;53.104;8.228;2023-04-24T08:52:16;9.20;;;7.53;;
3343;SDS011;1685;53.104;8.228;2023-04-24T08:54:44;9.10;;;7.10;;
3343;SDS011;1685;53.104;8.228;2023-04-24T08:57:12;8.77;;;6.87;;
3343;SDS011;1685;53.104;8.228;2023-04-24T08:59:40;8.10;;;7.10;;
3343;SDS011;1685;53.104;8.228;2023-04-24T09:02:10;7.07;;;6.37;;
3343;SDS011;1685;53.104;8.228;2023-04-24T09:04:37;6.50;;;5.90;;
3343;SDS011;1685;53.104;8.228;2023-04-24T09:07:06;10.40;;;7.07;;
3343;SDS011;1685;53.104;8.228;2023-04-24T09:09:34;7.90;;;6.23;;
3343;SDS011;1685;53.104;8.228;2023-04-24T09:12:01;7.40;;;6.70;;
3343;SDS011;1685;53.104;8.228;2023-04-24T09:14:29;6.90;;;6.23;;
3343;SDS011;1685;53.104;8.228;2023-04-24T09:16:56;6.60;;;6.00;;
3343;SDS011;1685;53.104;8.228;2023-04-24T09:19:24;6.10;;;5.60;;
3343;SDS011;1685;53.104;8.228;2023-04-24T09:21:51;6.27;;;5.67;;
3343;SDS011;1685;53.104;8.228;2023-04-24T09:24:21;6.47;;;5.83;;
3343;SDS011;1685;53.104;8.228;2023-04-24T09:26:48;6.60;;;6.00;;
3343;SDS011;1685;53.104;8.228;2023-04-24T09:29:16;7.23;;;6.37;;
3343;SDS011;1685;53.104;8.228;2023-04-24T09:31:44;7.47;;;6.20;;
3343;SDS011;1685;53.104;8.228;2023-04-24T09:34:11;6.83;;;5.93;;
3343;SDS011;1685;53.104;8.228;2023-04-24T09:36:39;7.77;;;6.97;;
3343;SDS011;1685;53.104;8.228;2023-04-24T09:39:08;8.57;;;6.77;;
3343;SDS011;1685;53.104;8.228;2023-04-24T09:41:43;7.70;;;6.43;;
3343;SDS011;1685;53.104;8.228;2023-04-24T09:44:11;7.50;;;6.80;;
3343;SDS011;1685;53.104;8.228;2023-04-24T09:46:40;8.70;;;7.17;;
3343;SDS011;1685;53.104;8.228;2023-04-24T09:49:08;7.90;;;7.00;;
3343;SDS011;1685;53.104;8.228;2023-04-24T09:51:36;11.93;;;7.30;;
3343;SDS011;1685;53.104;8.228;2023-04-24T09:54:04;8.68;;;6.80;;
3343;SDS011;1685;53.104;8.228;2023-04-24T09:56:40;10.10;;;8.20;;
3343;SDS011;1685;53.104;8.228;2023-04-24T09:59:08;8.93;;;8.03;;
3343;SDS011;1685;53.104;8.228;2023-04-24T10:01:35;9.27;;;8.30;;
3343;SDS011;1685;53.104;8.228;2023-04-24T10:04:03;9.67;;;8.67;;
3343;SDS011;1685;53.104;8.228;2023-04-24T10:06:32;8.70;;;7.80;;
3343;SDS011;1685;53.104;8.228;2023-04-24T10:08:59;11.23;;;8.97;;
3343;SDS011;1685;53.104;8.228;2023-04-24T10:11:27;9.37;;;7.70;;
3343;SDS011;1685;53.104;8.228;2023-04-24T10:13:55;13.60;;;7.83;;
3343;SDS011;1685;53.104;8.228;2023-04-24T10:16:23;10.27;;;7.90;;
3343;SDS011;1685;53.104;8.228;2023-04-24T10:18:52;8.77;;;7.30;;
3343;SDS011;1685;53.104;8.228;2023-04-24T10:21:19;7.67;;;6.43;;
3343;SDS011;1685;53.104;8.228;2023-04-24T10:23:46;7.77;;;7.00;;
3343;SDS011;1685;53.104;8.228;2023-04-24T10:26:15;6.27;;;5.60;;
3343;SDS011;1685;53.104;8.228;2023-04-24T10:28:44;5.60;;;5.00;;
3343;SDS011;1685;53.104;8.228;2023-04-24T10:31:13;7.40;;;6.60;;
3343;SDS011;1685;53.104;8.228;2023-04-24T10:33:40;6.43;;;5.87;;
3343;SDS011;1685;53.104;8.228;2023-04-24T10:36:08;6.80;;;6.20;;
3343;SDS011;1685;53.104;8.228;2023-04-24T10:38:37;6.87;;;5.17;;
3343;SDS011;1685;53.104;8.228;2023-04-24T10:41:07;8.83;;;4.90;;
3343;SDS011;1685;53.104;8.228;2023-04-24T10:43:34;5.53;;;4.97;;
3343;SDS011;1685;53.104;8.228;2023-04-24T10:46:02;5.57;;;4.80;;
3343;SDS011;1685;53.104;8.228;2023-04-24T10:48:31;7.77;;;5.17;;
3343;SDS011;1685;53.104;8.228;2023-04-24T10:50:58;4.70;;;4.27;;
3343;SDS011;1685;53.104;8.228;2023-04-24T10:53:27;5.00;;;4.60;;
3343;SDS011;1685;53.104;8.228;2023-04-24T10:55:57;4.63;;;4.23;;
3343;SDS011;1685;53.104;8.228;2023-04-24T10:58:35;4.23;;;3.83;;
3343;SDS011;1685;53.104;8.228;2023-04-24T11:01:05;8.83;;;3.47;;
3343;SDS011;1685;53.104;8.228;2023-04-24T11:03:34;3.97;;;3.47;;
3343;SDS011;1685;53.104;8.228;2023-04-24T11:06:03;4.50;;;3.27;;
3343;SDS011;1685;53.104;8.228;2023-04-24T11:08:32;4.37;;;4.07;;
3343;SDS011;1685;53.104;8.228;2023-04-24T11:11:06;5.00;;;4.10;;
3343;SDS011;1685;53.104;8.228;2023-04-24T11:16:33;4.53;;;4.13;;
3343;SDS011;1685;53.104;8.228;2023-04-24T11:19:05;6.30;;;4.63;;
3343;SDS011;1685;53.104;8.228;2023-04-24T11:21:39;6.87;;;4.70;;
3343;SDS011;1685;53.104;8.228;2023-04-24T11:24:26;4.67;;;4.20;;
3343;SDS011;1685;53.104;8.228;2023-04-24T11:26:56;5.03;;;4.53;;
3343;SDS011;1685;53.104;8.228;2023-04-24T11:29:38;3.97;;;3.67;;
3343;SDS011;1685;53.104;8.228;2023-04-24T11:32:15;5.13;;;4.07;;
3343;SDS011;1685;53.104;8.228;2023-04-24T11:34:52;6.17;;;4.87;;
3343;SDS011;1685;53.104;8.228;2023-04-24T11:37:20;5.33;;;4.93;;
3343;SDS011;1685;53.104;8.228;2023-04-24T11:39:47;5.30;;;4.80;;
3343;SDS011;1685;53.104;8.228;2023-04-24T11:42:17;4.30;;;3.90;;
3343;SDS011;1685;53.104;8.228;2023-04-24T11:44:44;8.20;;;5.90;;
3343;SDS011;1685;53.104;8.228;2023-04-24T11:47:12;6.73;;;4.90;;
3343;SDS011;1685;53.104;8.228;2023-04-24T11:49:40;8.00;;;5.47;;
3343;SDS011;1685;53.104;8.228;2023-04-24T11:52:08;4.07;;;3.77;;
3343;SDS011;1685;53.104;8.228;2023-04-24T11:54:35;4.73;;;2.80;;
3343;SDS011;1685;53.104;8.228;2023-04-24T11:57:03;10.13;;;4.20;;
3343;SDS011;1685;53.104;8.228;2023-04-24T11:59:35;6.23;;;5.07;;
3343;SDS011;1685;53.104;8.228;2023-04-24T12:02:02;6.13;;;5.33;;
3343;SDS011;1685;53.104;8.228;2023-04-24T12:04:38;10.13;;;6.43;;
3343;SDS011;1685;53.104;8.228;2023-04-24T12:07:06;16.50;;;7.53;;
3343;SDS011;1685;53.104;8.228;2023-04-24T12:09:41;15.80;;;10.80;;
3343;SDS011;1685;53.104;8.228;2023-04-24T12:12:09;14.33;;;10.00;;
3343;SDS011;1685;53.104;8.228;2023-04-24T12:14:41;17.67;;;11.27;;
3343;SDS011;1685;53.104;8.228;2023-04-24T12:17:13;15.80;;;11.70;;
3343;SDS011;1685;53.104;8.228;2023-04-24T12:19:44;26.30;;;14.27;;
3343;SDS011;1685;53.104;8.228;2023-04-24T12:22:13;24.93;;;15.93;;
3343;SDS011;1685;53.104;8.228;2023-04-24T12:24:57;24.37;;;15.50;;
3343;SDS011;1685;53.104;8.228;2023-04-24T12:27:25;27.80;;;17.13;;
3343;SDS011;1685;53.104;8.228;2023-04-24T12:29:53;24.40;;;16.27;;
3343;SDS011;1685;53.104;8.228;2023-04-24T12:32:20;27.80;;;15.40;;
3343;SDS011;1685;53.104;8.228;2023-04-24T12:34:47;25.73;;;16.07;;
3343;SDS011;1685;53.104;8.228;2023-04-24T12:37:15;21.20;;;15.60;;
3343;SDS011;1685;53.104;8.228;2023-04-24T12:39:44;19.70;;;14.30;;
3343;SDS011;1685;53.104;8.228;2023-04-24T12:42:25;19.87;;;12.83;;
3343;SDS011;1685;53.104;8.228;2023-04-24T12:44:55;19.43;;;11.17;;
3343;SDS011;1685;53.104;8.228;2023-04-24T12:47:23;18.33;;;9.93;;
3343;SDS011;1685;53.104;8.228;2023-04-24T12:49:51;15.13;;;9.10;;
3343;SDS011;1685;53.104;8.228;2023-04-24T12:52:18;20.70;;;10.60;;
3343;SDS011;1685;53.104;8.228;2023-04-24T12:54:46;18.70;;;10.40;;
3343;SDS011;1685;53.104;8.228;2023-04-24T12:57:15;15.43;;;9.80;;
3343;SDS011;1685;53.104;8.228;2023-04-24T12:59:41;19.30;;;10.10;;
3343;SDS011;1685;53.104;8.228;2023-04-24T13:02:09;22.80;;;11.60;;
3343;SDS011;1685;53.104;8.228;2023-04-24T13:04:36;15.63;;;10.40;;
3343;SDS011;1685;53.104;8.228;2023-04-24T13:07:03;17.67;;;10.90;;
3343;SDS011;1685;53.104;8.228;2023-04-24T13:09:30;18.27;;;10.10;;
3343;SDS011;1685;53.104;8.228;2023-04-24T13:11:58;20.90;;;9.67;;
3343;SDS011;1685;53.104;8.228;2023-04-24T13:14:27;16.77;;;9.30;;
3343;SDS011;1685;53.104;8.228;2023-04-24T13:16:54;15.30;;;8.90;;
3343;SDS011;1685;53.104;8.228;2023-04-24T13:19:21;16.27;;;9.07;;
3343;SDS011;1685;53.104;8.228;2023-04-24T13:21:48;12.33;;;8.10;;
3343;SDS011;1685;53.104;8.228;2023-04-24T13:24:15;18.73;;;7.80;;
3343;SDS011;1685;53.104;8.228;2023-04-24T13:26:42;16.37;;;9.03;;
3343;SDS011;1685;53.104;8.228;2023-04-24T13:29:09;9.33;;;7.20;;
3343;SDS011;1685;53.104;8.228;2023-04-24T13:31:38;13.27;;;6.97;;
3343;SDS011;1685;53.104;8.228;2023-04-24T13:34:04;18.23;;;8.00;;
3343;SDS011;1685;53.104;8.228;2023-04-24T13:36:32;14.73;;;7.67;;
3343;SDS011;1685;53.104;8.228;2023-04-24T13:39:00;14.77;;;7.60;;
3343;SDS011;1685;53.104;8.228;2023-04-24T13:41:28;12.40;;;7.40;;
3343;SDS011;1685;53.104;8.228;2023-04-24T13:43:55;11.13;;;7.20;;
3343;SDS011;1685;53.104;8.228;2023-04-24T13:46:22;14.70;;;7.40;;
3343;SDS011;1685;53.104;8.228;2023-04-24T13:48:50;16.70;;;7.63;;
3343;SDS011;1685;53.104;8.228;2023-04-24T13:51:17;11.50;;;7.37;;
3343;SDS011;1685;53.104;8.228;2023-04-24T13:53:44;16.90;;;8.27;;
3343;SDS011;1685;53.104;8.228;2023-04-24T13:56:11;14.60;;;8.03;;
3343;SDS011;1685;53.104;8.228;2023-04-24T13:58:39;18.53;;;9.00;;
3343;SDS011;1685;53.104;8.228;2023-04-24T14:01:06;15.10;;;8.17;;
3343;SDS011;1685;53.104;8.228;2023-04-24T14:03:33;23.17;;;8.53;;
3343;SDS011;1685;53.104;8.228;2023-04-24T14:06:02;12.37;;;7.60;;
3343;SDS011;1685;53.104;8.228;2023-04-24T14:08:28;16.93;;;7.30;;
3343;SDS011;1685;53.104;8.228;2023-04-24T14:10:56;17.33;;;7.50;;
3343;SDS011;1685;53.104;8.228;2023-04-24T14:13:23;15.77;;;7.87;;
3343;SDS011;1685;53.104;8.228;2023-04-24T14:15:50;12.87;;;7.33;;
3343;SDS011;1685;53.104;8.228;2023-04-24T14:18:18;10.63;;;7.97;;
3343;SDS011;1685;53.104;8.228;2023-04-24T14:20:45;14.10;;;6.37;;
3343;SDS011;1685;53.104;8.228;2023-04-24T14:23:13;11.10;;;6.20;;
3343;SDS011;1685;53.104;8.228;2023-04-24T14:25:40;10.93;;;5.53;;
3343;SDS011;1685;53.104;8.228;2023-04-24T14:28:07;10.30;;;5.50;;
3343;SDS011;1685;53.104;8.228;2023-04-24T14:30:35;6.93;;;5.40;;
3343;SDS011;1685;53.104;8.228;2023-04-24T14:33:02;8.40;;;4.80;;
3343;SDS011;1685;53.104;8.228;2023-04-24T14:35:29;16.03;;;5.83;;
3343;SDS011;1685;53.104;8.228;2023-04-24T14:37:59;8.50;;;4.90;;
3343;SDS011;1685;53.104;8.228;2023-04-24T14:40:27;8.80;;;5.00;;
3343;SDS011;1685;53.104;8.228;2023-04-24T14:42:54;12.43;;;5.33;;
3343;SDS011;1685;53.104;8.228;2023-04-24T14:45:22;14.07;;;4.80;;
3343;SDS011;1685;53.104;8.228;2023-04-24T14:47:50;10.93;;;4.33;;
3343;SDS011;1685;53.104;8.228;2023-04-24T14:50:17;7.43;;;4.17;;
3343;SDS011;1685;53.104;8.228;2023-04-24T14:52:44;12.20;;;4.73;;
3343;SDS011;1685;53.104;8.228;2023-04-24T14:55:11;5.20;;;4.70;;
3343;SDS011;1685;53.104;8.228;2023-04-24T14:57:39;10.70;;;5.77;;
3343;SDS011;1685;53.104;8.228;2023-04-24T15:00:07;15.43;;;4.13;;
3343;SDS011;1685;53.104;8.228;2023-04-24T15:02:35;11.67;;;4.93;;
3343;SDS011;1685;53.104;8.228;2023-04-24T15:05:07;6.20;;;4.80;;
3343;SDS011;1685;53.104;8.228;2023-04-24T15:07:34;12.73;;;5.90;;
3343;SDS011;1685;53.104;8.228;2023-04-24T15:10:01;8.53;;;4.70;;
3343;SDS011;1685;53.104;8.228;2023-04-24T15:12:28;8.67;;;4.97;;
3343;SDS011;1685;53.104;8.228;2023-04-24T15:14:57;7.43;;;5.30;;